Columbus, Michigan
Current Conditions -  °F | °C
As of 7:36 PM on Saturday 25 Oct 2014 (Local Time) from KPHN Reporting Station
Clear Clear  
Wind Chill: 59°   Ceiling: Unl
Heat Index: 59°   Visibility: 10mi
Dew Point: 32°   Wind: 14mph
Humidity: 36%   Direction: 280°W
Pressure: 29.72"   Gusts: 18mph
Location:  42.85°N, 82.67°W
Report Text: KPHN 252336Z AUTO 28012G16KT 10SM CLR 15/00 A2972 RMK AO2
Loading
Personal Weather Stations






























Interactive Weather Map
Tropical Storm Tracking
New forecast layout! Learn more

10-Day Weather Forecast

Advertisements
Track Severe Weather on mobile